sensor_id;sensor_type;location;lat;lon;timestamp;temperature;humidity
34249;DHT22;20508;50.834;3.160;2022-09-23T00:01:05;21.40;47.60
34249;DHT22;20508;50.834;3.160;2022-09-23T00:03:37;21.40;47.50
34249;DHT22;20508;50.834;3.160;2022-09-23T00:06:09;21.40;47.60
34249;DHT22;20508;50.834;3.160;2022-09-23T00:08:36;21.40;47.50
34249;DHT22;20508;50.834;3.160;2022-09-23T00:11:08;21.40;47.50
34249;DHT22;20508;50.834;3.160;2022-09-23T00:13:38;21.50;47.40
34249;DHT22;20508;50.834;3.160;2022-09-23T00:16:11;21.50;47.40
34249;DHT22;20508;50.834;3.160;2022-09-23T00:18:38;21.50;47.30
34249;DHT22;20508;50.834;3.160;2022-09-23T00:21:12;21.40;47.40
34249;DHT22;20508;50.834;3.160;2022-09-23T00:23:39;21.40;47.30
34249;DHT22;20508;50.834;3.160;2022-09-23T00:26:09;21.30;47.40
34249;DHT22;20508;50.834;3.160;2022-09-23T00:28:36;21.40;47.40
34249;DHT22;20508;50.834;3.160;2022-09-23T00:31:09;21.30;47.40
34249;DHT22;20508;50.834;3.160;2022-09-23T00:33:36;21.40;47.50
34249;DHT22;20508;50.834;3.160;2022-09-23T00:36:08;21.30;47.40
34249;DHT22;20508;50.834;3.160;2022-09-23T00:38:38;21.40;47.50
34249;DHT22;20508;50.834;3.160;2022-09-23T00:41:04;21.30;47.60
34249;DHT22;20508;50.834;3.160;2022-09-23T00:43:49;21.30;47.50
34249;DHT22;20508;50.834;3.160;2022-09-23T00:46:27;21.30;47.40
34249;DHT22;20508;50.834;3.160;2022-09-23T00:49:09;21.30;47.40
34249;DHT22;20508;50.834;3.160;2022-09-23T00:51:40;21.30;47.40
34249;DHT22;20508;50.834;3.160;2022-09-23T00:54:08;21.30;47.40
34249;DHT22;20508;50.834;3.160;2022-09-23T00:56:36;21.30;47.30
34249;DHT22;20508;50.834;3.160;2022-09-23T00:59:05;21.40;47.30
34249;DHT22;20508;50.834;3.160;2022-09-23T01:01:31;21.40;47.30
34249;DHT22;20508;50.834;3.160;2022-09-23T01:04:00;21.30;47.30
34249;DHT22;20508;50.834;3.160;2022-09-23T01:06:26;21.30;47.20
34249;DHT22;20508;50.834;3.160;2022-09-23T01:08:54;21.30;47.30
34249;DHT22;20508;50.834;3.160;2022-09-23T01:11:32;21.30;47.30
34249;DHT22;20508;50.834;3.160;2022-09-23T01:14:24;21.30;47.30
34249;DHT22;20508;50.834;3.160;2022-09-23T01:17:01;21.30;47.30
34249;DHT22;20508;50.834;3.160;2022-09-23T01:33:08;21.40;46.90
34249;DHT22;20508;50.834;3.160;2022-09-23T01:38:31;21.50;46.90
34249;DHT22;20508;50.834;3.160;2022-09-23T01:43:52;21.50;46.70
34249;DHT22;20508;50.834;3.160;2022-09-23T01:46:26;21.50;46.60
34249;DHT22;20508;50.834;3.160;2022-09-23T01:49:13;21.50;46.70
34249;DHT22;20508;50.834;3.160;2022-09-23T01:51:48;21.50;46.70
34249;DHT22;20508;50.834;3.160;2022-09-23T01:54:33;21.50;46.70
34249;DHT22;20508;50.834;3.160;2022-09-23T01:57:08;21.50;46.70
34249;DHT22;20508;50.834;3.160;2022-09-23T01:59:45;21.50;46.80
34249;DHT22;20508;50.834;3.160;2022-09-23T02:02:16;21.40;46.80
34249;DHT22;20508;50.834;3.160;2022-09-23T02:09:58;21.30;46.90
34249;DHT22;20508;50.834;3.160;2022-09-23T02:12:27;21.40;46.90
34249;DHT22;20508;50.834;3.160;2022-09-23T02:15:02;21.30;46.90
34249;DHT22;20508;50.834;3.160;2022-09-23T02:17:51;21.40;46.90
34249;DHT22;20508;50.834;3.160;2022-09-23T02:20:26;21.40;46.80
34249;DHT22;20508;50.834;3.160;2022-09-23T02:23:04;21.40;46.90
34249;DHT22;20508;50.834;3.160;2022-09-23T02:25:54;21.40;46.80
34249;DHT22;20508;50.834;3.160;2022-09-23T02:28:31;21.40;46.80
34249;DHT22;20508;50.834;3.160;2022-09-23T02:31:15;21.40;46.90
34249;DHT22;20508;50.834;3.160;2022-09-23T02:33:56;21.30;46.80
34249;DHT22;20508;50.834;3.160;2022-09-23T02:36:29;21.30;46.90
34249;DHT22;20508;50.834;3.160;2022-09-23T02:39:03;21.20;47.00
34249;DHT22;20508;50.834;3.160;2022-09-23T02:44:15;21.30;47.00
34249;DHT22;20508;50.834;3.160;2022-09-23T02:46:43;21.30;47.10
34249;DHT22;20508;50.834;3.160;2022-09-23T02:51:42;21.20;47.10
34249;DHT22;20508;50.834;3.160;2022-09-23T02:54:18;21.20;47.00
34249;DHT22;20508;50.834;3.160;2022-09-23T02:56:44;21.20;46.90
34249;DHT22;20508;50.834;3.160;2022-09-23T02:59:11;21.20;46.90
34249;DHT22;20508;50.834;3.160;2022-09-23T03:13:32;21.30;47.00
34249;DHT22;20508;50.834;3.160;2022-09-23T03:16:37;21.20;47.00
34249;DHT22;20508;50.834;3.160;2022-09-23T03:19:28;21.20;46.90
34249;DHT22;20508;50.834;3.160;2022-09-23T03:22:11;21.20;47.10
34249;DHT22;20508;50.834;3.160;2022-09-23T03:24:40;21.10;47.10
34249;DHT22;20508;50.834;3.160;2022-09-23T03:27:14;21.10;47.80
34249;DHT22;20508;50.834;3.160;2022-09-23T03:29:47;21.10;47.20
34249;DHT22;20508;50.834;3.160;2022-09-23T03:32:23;21.10;47.10
34249;DHT22;20508;50.834;3.160;2022-09-23T03:34:58;21.20;47.20
34249;DHT22;20508;50.834;3.160;2022-09-23T03:37:31;21.10;47.10
34249;DHT22;20508;50.834;3.160;2022-09-23T03:40:11;21.10;47.10
34249;DHT22;20508;50.834;3.160;2022-09-23T03:42:40;21.20;47.00
34249;DHT22;20508;50.834;3.160;2022-09-23T03:45:09;21.20;47.00
34249;DHT22;20508;50.834;3.160;2022-09-23T03:47:39;21.20;46.90
34249;DHT22;20508;50.834;3.160;2022-09-23T03:50:07;21.20;47.00
34249;DHT22;20508;50.834;3.160;2022-09-23T03:52:34;21.10;46.90
34249;DHT22;20508;50.834;3.160;2022-09-23T03:55:00;21.20;47.00
34249;DHT22;20508;50.834;3.160;2022-09-23T03:57:26;21.20;47.00
34249;DHT22;20508;50.834;3.160;2022-09-23T03:59:52;21.20;47.00
34249;DHT22;20508;50.834;3.160;2022-09-23T04:02:19;21.20;47.10
34249;DHT22;20508;50.834;3.160;2022-09-23T04:04:47;21.20;47.00
34249;DHT22;20508;50.834;3.160;2022-09-23T04:07:20;21.20;47.00
34249;DHT22;20508;50.834;3.160;2022-09-23T04:09:49;21.20;47.00
34249;DHT22;20508;50.834;3.160;2022-09-23T04:12:15;21.20;47.50
34249;DHT22;20508;50.834;3.160;2022-09-23T04:14:42;21.30;46.80
34249;DHT22;20508;50.834;3.160;2022-09-23T04:17:09;21.30;46.70
34249;DHT22;20508;50.834;3.160;2022-09-23T04:19:38;21.30;46.60
34249;DHT22;20508;50.834;3.160;2022-09-23T04:22:05;21.30;46.50
34249;DHT22;20508;50.834;3.160;2022-09-23T04:24:31;21.40;46.50
34249;DHT22;20508;50.834;3.160;2022-09-23T04:27:01;21.40;46.40
34249;DHT22;20508;50.834;3.160;2022-09-23T04:29:28;21.40;46.30
34249;DHT22;20508;50.834;3.160;2022-09-23T04:31:57;21.40;46.30
34249;DHT22;20508;50.834;3.160;2022-09-23T04:34:23;21.40;46.30
34249;DHT22;20508;50.834;3.160;2022-09-23T04:36:49;21.40;46.40
34249;DHT22;20508;50.834;3.160;2022-09-23T04:39:16;21.30;46.40
34249;DHT22;20508;50.834;3.160;2022-09-23T04:41:43;21.30;46.40
34249;DHT22;20508;50.834;3.160;2022-09-23T04:44:13;21.30;46.50
34249;DHT22;20508;50.834;3.160;2022-09-23T04:46:42;21.30;46.50
34249;DHT22;20508;50.834;3.160;2022-09-23T04:49:13;21.30;46.70
34249;DHT22;20508;50.834;3.160;2022-09-23T04:51:40;21.20;46.60
34249;DHT22;20508;50.834;3.160;2022-09-23T04:54:09;21.20;46.80
34249;DHT22;20508;50.834;3.160;2022-09-23T04:56:38;21.20;46.70
34249;DHT22;20508;50.834;3.160;2022-09-23T04:59:04;21.20;46.70
34249;DHT22;20508;50.834;3.160;2022-09-23T05:01:32;21.20;46.70
34249;DHT22;20508;50.834;3.160;2022-09-23T05:04:01;21.10;46.70
34249;DHT22;20508;50.834;3.160;2022-09-23T05:06:28;21.20;46.70
34249;DHT22;20508;50.834;3.160;2022-09-23T05:08:57;21.20;46.60
34249;DHT22;20508;50.834;3.160;2022-09-23T05:11:24;21.20;46.60
34249;DHT22;20508;50.834;3.160;2022-09-23T05:13:52;21.20;46.60
34249;DHT22;20508;50.834;3.160;2022-09-23T05:16:19;21.20;46.70
34249;DHT22;20508;50.834;3.160;2022-09-23T05:18:47;21.20;46.70
34249;DHT22;20508;50.834;3.160;2022-09-23T05:21:16;21.20;46.70
34249;DHT22;20508;50.834;3.160;2022-09-23T05:23:47;21.20;46.70
34249;DHT22;20508;50.834;3.160;2022-09-23T05:26:13;21.20;46.80
34249;DHT22;20508;50.834;3.160;2022-09-23T05:28:40;21.10;46.80
34249;DHT22;20508;50.834;3.160;2022-09-23T05:31:14;21.10;46.90
34249;DHT22;20508;50.834;3.160;2022-09-23T05:33:45;21.10;46.90
34249;DHT22;20508;50.834;3.160;2022-09-23T05:36:12;21.10;46.90
34249;DHT22;20508;50.834;3.160;2022-09-23T05:38:38;21.00;47.00
34249;DHT22;20508;50.834;3.160;2022-09-23T05:41:07;21.10;47.00
34249;DHT22;20508;50.834;3.160;2022-09-23T05:43:33;21.10;46.90
34249;DHT22;20508;50.834;3.160;2022-09-23T05:46:11;21.10;46.90
34249;DHT22;20508;50.834;3.160;2022-09-23T05:48:38;21.10;46.80
34249;DHT22;20508;50.834;3.160;2022-09-23T05:51:17;21.10;46.80
34249;DHT22;20508;50.834;3.160;2022-09-23T05:53:54;21.10;46.80
34249;DHT22;20508;50.834;3.160;2022-09-23T05:56:24;21.20;46.80
34249;DHT22;20508;50.834;3.160;2022-09-23T05:58:52;21.10;46.80
34249;DHT22;20508;50.834;3.160;2022-09-23T06:01:23;21.10;46.80
34249;DHT22;20508;50.834;3.160;2022-09-23T06:03:50;21.20;46.80
34249;DHT22;20508;50.834;3.160;2022-09-23T06:06:18;21.00;46.80
34249;DHT22;20508;50.834;3.160;2022-09-23T06:08:46;21.00;47.10
34249;DHT22;20508;50.834;3.160;2022-09-23T06:11:12;21.00;47.70
34249;DHT22;20508;50.834;3.160;2022-09-23T06:13:40;21.00;47.00
34249;DHT22;20508;50.834;3.160;2022-09-23T06:16:15;21.00;47.00
34249;DHT22;20508;50.834;3.160;2022-09-23T06:18:43;21.10;47.10
34249;DHT22;20508;50.834;3.160;2022-09-23T06:21:13;21.00;47.10
34249;DHT22;20508;50.834;3.160;2022-09-23T06:23:40;21.10;47.10
34249;DHT22;20508;50.834;3.160;2022-09-23T06:26:09;21.10;47.10
34249;DHT22;20508;50.834;3.160;2022-09-23T06:28:36;21.00;47.10
34249;DHT22;20508;50.834;3.160;2022-09-23T06:31:09;21.10;47.00
34249;DHT22;20508;50.834;3.160;2022-09-23T06:33:35;21.10;47.00
34249;DHT22;20508;50.834;3.160;2022-09-23T06:36:03;21.10;47.00
34249;DHT22;20508;50.834;3.160;2022-09-23T06:38:30;21.20;47.00
34249;DHT22;20508;50.834;3.160;2022-09-23T06:40:59;21.10;47.00
34249;DHT22;20508;50.834;3.160;2022-09-23T06:43:29;21.10;46.90
34249;DHT22;20508;50.834;3.160;2022-09-23T06:45:57;21.10;47.00
34249;DHT22;20508;50.834;3.160;2022-09-23T06:48:24;21.10;47.00
34249;DHT22;20508;50.834;3.160;2022-09-23T06:50:53;21.10;47.00
34249;DHT22;20508;50.834;3.160;2022-09-23T06:53:23;21.10;46.80
34249;DHT22;20508;50.834;3.160;2022-09-23T06:55:59;21.20;46.90
34249;DHT22;20508;50.834;3.160;2022-09-23T06:58:27;21.20;46.70
34249;DHT22;20508;50.834;3.160;2022-09-23T07:00:53;21.20;46.80
34249;DHT22;20508;50.834;3.160;2022-09-23T07:03:25;21.20;46.70
34249;DHT22;20508;50.834;3.160;2022-09-23T07:05:54;21.10;46.70
34249;DHT22;20508;50.834;3.160;2022-09-23T07:08:21;21.20;46.90
34249;DHT22;20508;50.834;3.160;2022-09-23T07:10:57;21.20;46.70
34249;DHT22;20508;50.834;3.160;2022-09-23T07:13:26;21.20;46.70
34249;DHT22;20508;50.834;3.160;2022-09-23T07:15:55;21.20;46.60
34249;DHT22;20508;50.834;3.160;2022-09-23T07:18:23;21.30;46.50
34249;DHT22;20508;50.834;3.160;2022-09-23T07:20:53;21.30;46.60
34249;DHT22;20508;50.834;3.160;2022-09-23T07:23:23;21.30;46.50
34249;DHT22;20508;50.834;3.160;2022-09-23T07:25:50;21.20;46.60
34249;DHT22;20508;50.834;3.160;2022-09-23T07:28:18;21.20;46.70
34249;DHT22;20508;50.834;3.160;2022-09-23T07:30:46;21.20;46.70
34249;DHT22;20508;50.834;3.160;2022-09-23T07:33:15;21.20;46.80
34249;DHT22;20508;50.834;3.160;2022-09-23T07:35:41;21.20;46.80
34249;DHT22;20508;50.834;3.160;2022-09-23T07:38:09;21.20;46.90
34249;DHT22;20508;50.834;3.160;2022-09-23T07:40:38;21.10;46.90
34249;DHT22;20508;50.834;3.160;2022-09-23T07:43:05;21.10;47.00
34249;DHT22;20508;50.834;3.160;2022-09-23T07:45:32;21.10;46.90
34249;DHT22;20508;50.834;3.160;2022-09-23T07:47:59;21.10;47.00
34249;DHT22;20508;50.834;3.160;2022-09-23T07:50:27;21.10;47.00
34249;DHT22;20508;50.834;3.160;2022-09-23T07:52:54;21.10;47.00
34249;DHT22;20508;50.834;3.160;2022-09-23T07:55:20;21.10;47.10
34249;DHT22;20508;50.834;3.160;2022-09-23T07:57:46;21.20;47.00
34249;DHT22;20508;50.834;3.160;2022-09-23T08:00:13;21.20;47.10
34249;DHT22;20508;50.834;3.160;2022-09-23T08:02:39;21.20;47.10
34249;DHT22;20508;50.834;3.160;2022-09-23T08:05:06;21.20;47.10
34249;DHT22;20508;50.834;3.160;2022-09-23T08:07:36;21.10;47.00
34249;DHT22;20508;50.834;3.160;2022-09-23T08:10:02;21.10;47.10
34249;DHT22;20508;50.834;3.160;2022-09-23T08:12:29;21.10;47.10
34249;DHT22;20508;50.834;3.160;2022-09-23T08:14:55;21.10;47.20
34249;DHT22;20508;50.834;3.160;2022-09-23T08:17:25;21.10;47.20
34249;DHT22;20508;50.834;3.160;2022-09-23T08:19:54;21.10;47.30
34249;DHT22;20508;50.834;3.160;2022-09-23T08:22:20;21.00;47.30
34249;DHT22;20508;50.834;3.160;2022-09-23T08:24:46;21.00;47.40
34249;DHT22;20508;50.834;3.160;2022-09-23T08:27:12;21.00;47.50
34249;DHT22;20508;50.834;3.160;2022-09-23T08:29:39;21.00;47.40
34249;DHT22;20508;50.834;3.160;2022-09-23T08:32:05;21.10;47.50
34249;DHT22;20508;50.834;3.160;2022-09-23T08:34:32;21.10;47.50
34249;DHT22;20508;50.834;3.160;2022-09-23T08:37:00;21.10;47.40
34249;DHT22;20508;50.834;3.160;2022-09-23T08:39:26;21.10;47.50
34249;DHT22;20508;50.834;3.160;2022-09-23T08:47:12;21.20;47.40
34249;DHT22;20508;50.834;3.160;2022-09-23T08:49:59;21.20;47.30
34249;DHT22;20508;50.834;3.160;2022-09-23T08:52:38;21.20;47.40
34249;DHT22;20508;50.834;3.160;2022-09-23T08:55:13;21.10;47.50
34249;DHT22;20508;50.834;3.160;2022-09-23T09:00:39;21.10;47.50
34249;DHT22;20508;50.834;3.160;2022-09-23T09:03:19;21.10;47.60
34249;DHT22;20508;50.834;3.160;2022-09-23T09:05:52;21.10;47.60
34249;DHT22;20508;50.834;3.160;2022-09-23T09:08:25;21.00;47.80
34249;DHT22;20508;50.834;3.160;2022-09-23T09:10:56;21.10;47.70
34249;DHT22;20508;50.834;3.160;2022-09-23T09:13:45;21.10;47.80
34249;DHT22;20508;50.834;3.160;2022-09-23T09:18:55;21.10;47.70
34249;DHT22;20508;50.834;3.160;2022-09-23T09:21:32;21.10;47.80
34249;DHT22;20508;50.834;3.160;2022-09-23T09:24:02;21.20;47.70
34249;DHT22;20508;50.834;3.160;2022-09-23T09:26:33;21.20;47.70
34249;DHT22;20508;50.834;3.160;2022-09-23T09:29:09;21.20;47.70
34249;DHT22;20508;50.834;3.160;2022-09-23T09:31:43;21.20;47.50
34249;DHT22;20508;50.834;3.160;2022-09-23T09:34:36;21.20;47.50
34249;DHT22;20508;50.834;3.160;2022-09-23T09:37:30;21.30;47.40
34249;DHT22;20508;50.834;3.160;2022-09-23T09:39:58;21.30;47.40
34249;DHT22;20508;50.834;3.160;2022-09-23T09:42:38;21.20;47.50
34249;DHT22;20508;50.834;3.160;2022-09-23T09:45:26;21.30;47.40
34249;DHT22;20508;50.834;3.160;2022-09-23T09:47:59;21.40;47.50
34249;DHT22;20508;50.834;3.160;2022-09-23T09:50:47;21.20;47.50
34249;DHT22;20508;50.834;3.160;2022-09-23T09:53:22;21.30;47.70
34249;DHT22;20508;50.834;3.160;2022-09-23T10:01:04;21.30;47.70
34249;DHT22;20508;50.834;3.160;2022-09-23T10:03:36;21.30;47.80
34249;DHT22;20508;50.834;3.160;2022-09-23T10:06:16;21.30;47.70
34249;DHT22;20508;50.834;3.160;2022-09-23T10:09:03;21.40;47.70
34249;DHT22;20508;50.834;3.160;2022-09-23T10:11:33;21.30;47.60
34249;DHT22;20508;50.834;3.160;2022-09-23T10:14:17;21.30;47.90
34249;DHT22;20508;50.834;3.160;2022-09-23T10:16:44;21.30;47.70
34249;DHT22;20508;50.834;3.160;2022-09-23T10:19:23;21.30;47.90
34249;DHT22;20508;50.834;3.160;2022-09-23T10:21:58;21.30;47.90
34249;DHT22;20508;50.834;3.160;2022-09-23T10:24:28;21.30;48.00
34249;DHT22;20508;50.834;3.160;2022-09-23T10:27:01;21.20;48.00
34249;DHT22;20508;50.834;3.160;2022-09-23T10:29:29;21.20;48.10
34249;DHT22;20508;50.834;3.160;2022-09-23T10:32:22;21.20;48.20
34249;DHT22;20508;50.834;3.160;2022-09-23T10:37:43;21.30;48.30
34249;DHT22;20508;50.834;3.160;2022-09-23T10:40:37;21.20;48.40
34249;DHT22;20508;50.834;3.160;2022-09-23T10:43:58;21.30;48.30
34249;DHT22;20508;50.834;3.160;2022-09-23T10:46:35;21.30;48.40
34249;DHT22;20508;50.834;3.160;2022-09-23T10:52:29;21.30;48.50
34249;DHT22;20508;50.834;3.160;2022-09-23T10:55:27;21.30;48.50
34249;DHT22;20508;50.834;3.160;2022-09-23T10:58:19;21.30;48.50
34249;DHT22;20508;50.834;3.160;2022-09-23T11:07:10;21.20;48.90
34249;DHT22;20508;50.834;3.160;2022-09-23T11:12:56;21.20;48.90
34249;DHT22;20508;50.834;3.160;2022-09-23T11:15:55;21.20;49.00
34249;DHT22;20508;50.834;3.160;2022-09-23T11:19:00;21.20;49.10
34249;DHT22;20508;50.834;3.160;2022-09-23T11:24:31;21.20;49.00
34249;DHT22;20508;50.834;3.160;2022-09-23T11:30:11;21.20;49.10
34249;DHT22;20508;50.834;3.160;2022-09-23T11:32:51;21.20;49.00
34249;DHT22;20508;50.834;3.160;2022-09-23T11:35:48;21.20;49.20
34249;DHT22;20508;50.834;3.160;2022-09-23T11:38:26;21.30;49.10
34249;DHT22;20508;50.834;3.160;2022-09-23T11:41:00;21.20;49.10
34249;DHT22;20508;50.834;3.160;2022-09-23T11:43:33;21.20;49.20
34249;DHT22;20508;50.834;3.160;2022-09-23T11:48:57;21.20;49.20
34249;DHT22;20508;50.834;3.160;2022-09-23T11:51:38;21.20;49.20
34249;DHT22;20508;50.834;3.160;2022-09-23T11:54:24;21.20;49.30
34249;DHT22;20508;50.834;3.160;2022-09-23T11:56:57;21.20;49.30
34249;DHT22;20508;50.834;3.160;2022-09-23T11:59:55;21.10;49.50
34249;DHT22;20508;50.834;3.160;2022-09-23T12:02:43;21.20;49.50
34249;DHT22;20508;50.834;3.160;2022-09-23T12:05:15;21.20;49.40
34249;DHT22;20508;50.834;3.160;2022-09-23T12:07:51;21.20;49.40
34249;DHT22;20508;50.834;3.160;2022-09-23T12:10:26;21.30;49.30
34249;DHT22;20508;50.834;3.160;2022-09-23T12:21:51;21.50;49.00
34249;DHT22;20508;50.834;3.160;2022-09-23T12:24:45;21.50;48.90
34249;DHT22;20508;50.834;3.160;2022-09-23T12:27:19;21.50;48.90
34249;DHT22;20508;50.834;3.160;2022-09-23T12:29:52;21.50;49.00
34249;DHT22;20508;50.834;3.160;2022-09-23T12:32:20;21.50;49.10
34249;DHT22;20508;50.834;3.160;2022-09-23T12:34:47;21.40;49.10
34249;DHT22;20508;50.834;3.160;2022-09-23T12:37:40;21.40;49.10
34249;DHT22;20508;50.834;3.160;2022-09-23T12:42:53;21.40;49.30
34249;DHT22;20508;50.834;3.160;2022-09-23T12:45:34;21.30;49.30
34249;DHT22;20508;50.834;3.160;2022-09-23T12:48:26;21.40;49.30
34249;DHT22;20508;50.834;3.160;2022-09-23T12:51:19;21.40;49.30
34249;DHT22;20508;50.834;3.160;2022-09-23T12:53:56;21.40;49.30
34249;DHT22;20508;50.834;3.160;2022-09-23T12:59:00;21.40;49.30
34249;DHT22;20508;50.834;3.160;2022-09-23T13:01:27;21.30;49.30
34249;DHT22;20508;50.834;3.160;2022-09-23T13:04:00;21.40;49.40
34249;DHT22;20508;50.834;3.160;2022-09-23T13:07:00;21.40;49.50
34249;DHT22;20508;50.834;3.160;2022-09-23T13:09:39;21.40;49.60
34249;DHT22;20508;50.834;3.160;2022-09-23T13:12:16;21.30;49.70
34249;DHT22;20508;50.834;3.160;2022-09-23T13:14:45;21.40;49.70
34249;DHT22;20508;50.834;3.160;2022-09-23T13:17:32;21.30;49.70
34249;DHT22;20508;50.834;3.160;2022-09-23T13:25:30;21.30;50.00
34249;DHT22;20508;50.834;3.160;2022-09-23T13:28:00;21.30;49.90
34249;DHT22;20508;50.834;3.160;2022-09-23T13:30:27;21.30;49.90
34249;DHT22;20508;50.834;3.160;2022-09-23T13:33:08;21.30;49.90
34249;DHT22;20508;50.834;3.160;2022-09-23T13:35:38;21.40;49.80
34249;DHT22;20508;50.834;3.160;2022-09-23T13:38:15;21.30;49.70
34249;DHT22;20508;50.834;3.160;2022-09-23T13:40:43;21.30;49.70
34249;DHT22;20508;50.834;3.160;2022-09-23T13:43:26;21.40;49.80
34249;DHT22;20508;50.834;3.160;2022-09-23T13:45:53;21.40;49.60
34249;DHT22;20508;50.834;3.160;2022-09-23T13:48:22;21.30;49.70
34249;DHT22;20508;50.834;3.160;2022-09-23T13:50:51;21.40;49.70
34249;DHT22;20508;50.834;3.160;2022-09-23T13:53:30;21.30;49.80
34249;DHT22;20508;50.834;3.160;2022-09-23T13:56:05;21.40;49.70
34249;DHT22;20508;50.834;3.160;2022-09-23T13:58:34;21.30;49.80
34249;DHT22;20508;50.834;3.160;2022-09-23T14:01:01;21.30;49.90
34249;DHT22;20508;50.834;3.160;2022-09-23T14:03:34;21.30;50.00
34249;DHT22;20508;50.834;3.160;2022-09-23T14:06:03;21.30;50.00
34249;DHT22;20508;50.834;3.160;2022-09-23T14:08:30;21.20;50.00
34249;DHT22;20508;50.834;3.160;2022-09-23T14:10:58;21.30;50.10
34249;DHT22;20508;50.834;3.160;2022-09-23T14:13:29;21.30;50.60
34249;DHT22;20508;50.834;3.160;2022-09-23T14:16:02;21.30;50.00
34249;DHT22;20508;50.834;3.160;2022-09-23T14:18:36;21.30;50.10
34249;DHT22;20508;50.834;3.160;2022-09-23T14:21:04;21.30;50.10
34249;DHT22;20508;50.834;3.160;2022-09-23T14:23:30;21.30;50.10
34249;DHT22;20508;50.834;3.160;2022-09-23T14:25:57;21.30;50.20
34249;DHT22;20508;50.834;3.160;2022-09-23T14:28:27;21.30;50.20
34249;DHT22;20508;50.834;3.160;2022-09-23T14:30:55;21.30;50.20
34249;DHT22;20508;50.834;3.160;2022-09-23T14:33:32;21.30;50.10
34249;DHT22;20508;50.834;3.160;2022-09-23T14:36:05;21.30;50.20
34249;DHT22;20508;50.834;3.160;2022-09-23T14:38:34;21.30;50.30
34249;DHT22;20508;50.834;3.160;2022-09-23T14:41:23;21.30;50.50
34249;DHT22;20508;50.834;3.160;2022-09-23T14:43:57;21.30;50.60
34249;DHT22;20508;50.834;3.160;2022-09-23T14:46:29;21.30;50.70
34249;DHT22;20508;50.834;3.160;2022-09-23T14:49:12;21.30;50.70
34249;DHT22;20508;50.834;3.160;2022-09-23T14:51:57;21.30;50.60
34249;DHT22;20508;50.834;3.160;2022-09-23T14:54:43;21.40;50.50
34249;DHT22;20508;50.834;3.160;2022-09-23T14:57:30;21.40;50.60
34249;DHT22;20508;50.834;3.160;2022-09-23T15:00:07;21.50;50.50
34249;DHT22;20508;50.834;3.160;2022-09-23T15:02:42;21.50;50.50
34249;DHT22;20508;50.834;3.160;2022-09-23T15:05:18;21.50;50.50
34249;DHT22;20508;50.834;3.160;2022-09-23T15:07:54;21.50;50.40
34249;DHT22;20508;50.834;3.160;2022-09-23T15:10:26;21.50;51.10
34249;DHT22;20508;50.834;3.160;2022-09-23T15:13:08;21.50;50.50
34249;DHT22;20508;50.834;3.160;2022-09-23T15:15:38;21.50;50.70
34249;DHT22;20508;50.834;3.160;2022-09-23T15:18:10;21.50;50.80
34249;DHT22;20508;50.834;3.160;2022-09-23T15:20:39;21.50;50.90
34249;DHT22;20508;50.834;3.160;2022-09-23T15:29:18;21.40;51.20
34249;DHT22;20508;50.834;3.160;2022-09-23T15:31:46;21.30;51.30
34249;DHT22;20508;50.834;3.160;2022-09-23T15:34:12;21.30;51.40
34249;DHT22;20508;50.834;3.160;2022-09-23T15:36:38;21.30;51.30
34249;DHT22;20508;50.834;3.160;2022-09-23T15:39:06;21.30;51.40
34249;DHT22;20508;50.834;3.160;2022-09-23T15:41:35;21.40;51.40
34249;DHT22;20508;50.834;3.160;2022-09-23T15:44:15;21.40;51.40
34249;DHT22;20508;50.834;3.160;2022-09-23T15:46:47;21.40;51.40
34249;DHT22;20508;50.834;3.160;2022-09-23T15:49:34;21.40;51.60
34249;DHT22;20508;50.834;3.160;2022-09-23T15:52:04;21.40;51.50
34249;DHT22;20508;50.834;3.160;2022-09-23T15:54:39;21.40;51.80
34249;DHT22;20508;50.834;3.160;2022-09-23T15:57:06;21.30;51.60
34249;DHT22;20508;50.834;3.160;2022-09-23T15:59:32;21.30;51.70
34249;DHT22;20508;50.834;3.160;2022-09-23T16:02:04;21.30;51.70
34249;DHT22;20508;50.834;3.160;2022-09-23T16:04:32;21.30;51.70
34249;DHT22;20508;50.834;3.160;2022-09-23T16:06:59;21.20;52.00
34249;DHT22;20508;50.834;3.160;2022-09-23T16:09:26;21.30;52.10
34249;DHT22;20508;50.834;3.160;2022-09-23T16:11:56;21.30;52.30
34249;DHT22;20508;50.834;3.160;2022-09-23T16:14:22;21.20;52.30
34249;DHT22;20508;50.834;3.160;2022-09-23T16:16:48;21.20;52.30
34249;DHT22;20508;50.834;3.160;2022-09-23T16:19:15;21.20;52.20
34249;DHT22;20508;50.834;3.160;2022-09-23T16:21:42;21.30;52.30
34249;DHT22;20508;50.834;3.160;2022-09-23T16:24:18;21.30;52.20
34249;DHT22;20508;50.834;3.160;2022-09-23T16:26:45;21.40;52.20
34249;DHT22;20508;50.834;3.160;2022-09-23T16:29:12;21.30;52.10
34249;DHT22;20508;50.834;3.160;2022-09-23T16:31:39;21.30;52.10
34249;DHT22;20508;50.834;3.160;2022-09-23T16:34:05;21.30;52.30
34249;DHT22;20508;50.834;3.160;2022-09-23T16:36:39;21.30;52.10
34249;DHT22;20508;50.834;3.160;2022-09-23T16:39:11;21.30;52.10
34249;DHT22;20508;50.834;3.160;2022-09-23T16:41:40;21.30;52.10
34249;DHT22;20508;50.834;3.160;2022-09-23T16:44:08;21.20;52.20
34249;DHT22;20508;50.834;3.160;2022-09-23T16:46:37;21.20;52.20
34249;DHT22;20508;50.834;3.160;2022-09-23T16:49:04;21.20;52.20
34249;DHT22;20508;50.834;3.160;2022-09-23T16:51:32;21.20;52.40
34249;DHT22;20508;50.834;3.160;2022-09-23T16:54:11;21.20;52.40
34249;DHT22;20508;50.834;3.160;2022-09-23T16:56:41;21.20;52.50
34249;DHT22;20508;50.834;3.160;2022-09-23T16:59:14;21.20;52.60
34249;DHT22;20508;50.834;3.160;2022-09-23T17:01:41;21.30;52.70
34249;DHT22;20508;50.834;3.160;2022-09-23T17:04:26;21.20;52.70
34249;DHT22;20508;50.834;3.160;2022-09-23T17:06:52;21.20;52.70
34249;DHT22;20508;50.834;3.160;2022-09-23T17:09:30;21.20;52.70
34249;DHT22;20508;50.834;3.160;2022-09-23T17:12:06;21.30;52.60
34249;DHT22;20508;50.834;3.160;2022-09-23T17:14:34;21.20;52.50
34249;DHT22;20508;50.834;3.160;2022-09-23T17:17:02;21.20;52.60
34249;DHT22;20508;50.834;3.160;2022-09-23T17:19:29;21.20;52.60
34249;DHT22;20508;50.834;3.160;2022-09-23T17:21:55;21.20;52.60
34249;DHT22;20508;50.834;3.160;2022-09-23T17:24:21;21.20;52.50
34249;DHT22;20508;50.834;3.160;2022-09-23T17:26:50;21.30;52.60
34249;DHT22;20508;50.834;3.160;2022-09-23T17:29:16;21.30;52.50
34249;DHT22;20508;50.834;3.160;2022-09-23T17:31:43;21.30;52.50
34249;DHT22;20508;50.834;3.160;2022-09-23T17:34:09;21.30;52.50
34249;DHT22;20508;50.834;3.160;2022-09-23T17:36:35;21.40;52.50
34249;DHT22;20508;50.834;3.160;2022-09-23T17:39:04;21.40;52.30
34249;DHT22;20508;50.834;3.160;2022-09-23T17:41:33;21.40;52.20
34249;DHT22;20508;50.834;3.160;2022-09-23T17:43:59;21.40;52.20
34249;DHT22;20508;50.834;3.160;2022-09-23T17:46:25;21.50;52.10
34249;DHT22;20508;50.834;3.160;2022-09-23T17:48:53;21.50;52.10
34249;DHT22;20508;50.834;3.160;2022-09-23T17:51:21;21.50;52.10